createdAt,value
2018-12-09T00:01:50.837Z,16.30
2018-12-09T00:04:18.703Z,15.07
2018-12-09T00:06:46.714Z,17.67
2018-12-09T00:09:14.578Z,16.03
2018-12-09T00:11:43.470Z,11.73
2018-12-09T00:14:11.437Z,18.00
2018-12-09T00:16:39.429Z,25.43
2018-12-09T00:19:07.300Z,19.37
2018-12-09T00:21:35.190Z,16.60
2018-12-09T00:24:03.122Z,21.37
2018-12-09T00:26:30.962Z,16.17
2018-12-09T00:28:58.811Z,20.27
2018-12-09T00:31:26.675Z,21.07
2018-12-09T00:33:54.643Z,18.87
2018-12-09T00:36:22.452Z,17.40
2018-12-09T00:38:50.275Z,15.87
2018-12-09T00:41:18.126Z,15.73
2018-12-09T00:43:45.996Z,15.17
2018-12-09T00:46:14.016Z,16.33
2018-12-09T00:48:41.946Z,19.80
2018-12-09T00:51:09.823Z,16.87
2018-12-09T00:53:37.703Z,14.83
2018-12-09T00:56:05.539Z,24.67
2018-12-09T00:58:33.410Z,17.47
2018-12-09T01:01:01.275Z,23.83
2018-12-09T01:03:29.132Z,20.00
2018-12-09T01:05:57.001Z,26.73
2018-12-09T01:08:25.250Z,23.10
2018-12-09T01:10:53.181Z,21.07
2018-12-09T01:13:21.180Z,19.20
2018-12-09T01:15:49.149Z,16.50
2018-12-09T01:18:17.074Z,21.90
2018-12-09T01:20:44.958Z,13.17
2018-12-09T01:23:12.946Z,17.03
2018-12-09T01:25:41.903Z,19.77
2018-12-09T01:28:11.188Z,23.07
2018-12-09T01:30:39.081Z,14.83
2018-12-09T01:33:07.316Z,17.23
2018-12-09T01:35:35.294Z,14.40
2018-12-09T01:38:03.271Z,20.33
2018-12-09T01:40:35.696Z,9.83
2018-12-09T01:43:03.607Z,19.00
2018-12-09T01:45:31.458Z,13.87
2018-12-09T01:48:00.531Z,14.00
2018-12-09T01:50:28.547Z,9.67
2018-12-09T01:53:00.945Z,16.20
2018-12-09T01:55:28.808Z,15.90
2018-12-09T01:57:56.711Z,13.00
2018-12-09T02:00:24.654Z,17.07
2018-12-09T02:02:52.582Z,18.20
2018-12-09T02:05:20.467Z,20.67
2018-12-09T02:07:48.330Z,17.37
2018-12-09T02:10:16.170Z,14.47
2018-12-09T02:12:44.010Z,14.40
2018-12-09T02:15:11.878Z,15.60
2018-12-09T02:17:40.215Z,14.03
2018-12-09T02:20:08.097Z,18.37
2018-12-09T02:22:36.032Z,14.20
2018-12-09T02:25:04.096Z,16.17
2018-12-09T02:27:31.951Z,16.13
2018-12-09T02:29:59.793Z,11.80
2018-12-09T02:32:27.710Z,11.97
2018-12-09T02:34:56.570Z,21.90
2018-12-09T02:37:24.576Z,12.17
2018-12-09T02:39:52.492Z,12.53
2018-12-09T02:42:20.462Z,13.83
2018-12-09T02:44:49.325Z,10.47
2018-12-09T02:47:17.154Z,9.03
2018-12-09T02:49:44.979Z,11.57
2018-12-09T02:52:12.830Z,15.43
2018-12-09T02:54:40.715Z,10.93
2018-12-09T02:57:08.568Z,11.07
2018-12-09T02:59:36.503Z,16.07
2018-12-09T03:02:04.544Z,11.53
2018-12-09T03:04:32.388Z,12.37
2018-12-09T03:07:00.246Z,13.77
2018-12-09T03:09:28.066Z,12.90
2018-12-09T03:11:55.958Z,18.67
2018-12-09T03:14:23.784Z,13.43
2018-12-09T03:16:51.664Z,10.23
2018-12-09T03:19:19.551Z,15.47
2018-12-09T03:21:47.425Z,20.63
2018-12-09T03:24:15.281Z,17.27
2018-12-09T03:26:44.683Z,12.03
2018-12-09T03:29:12.546Z,15.47
2018-12-09T03:31:40.442Z,14.97
2018-12-09T03:34:08.331Z,12.90
2018-12-09T03:36:36.231Z,11.80
2018-12-09T03:39:05.599Z,28.33
2018-12-09T03:41:33.453Z,18.23
2018-12-09T03:44:02.523Z,19.33
2018-12-09T03:46:30.366Z,15.30
2018-12-09T03:48:58.204Z,15.73
2018-12-09T03:51:26.047Z,15.77
2018-12-09T03:53:53.909Z,14.53
2018-12-09T03:56:21.757Z,18.13
2018-12-09T03:58:49.607Z,16.20
2018-12-09T04:01:18.716Z,12.10
2018-12-09T04:03:46.568Z,9.13
2018-12-09T04:06:14.448Z,17.33
2018-12-09T04:08:42.301Z,9.70
2018-12-09T04:11:10.134Z,15.77
2018-12-09T04:13:38.364Z,20.27
2018-12-09T04:16:06.192Z,15.73
2018-12-09T04:18:34.079Z,18.13
2018-12-09T04:21:01.935Z,11.27
2018-12-09T04:23:29.740Z,13.30
2018-12-09T04:25:57.980Z,17.37
2018-12-09T04:28:25.845Z,16.97
2018-12-09T04:30:53.678Z,10.03
2018-12-09T04:33:21.582Z,14.43
2018-12-09T04:35:49.756Z,22.93
2018-12-09T04:38:18.021Z,10.73
2018-12-09T04:40:45.859Z,12.07
2018-12-09T04:43:15.265Z,14.90
2018-12-09T04:45:43.182Z,13.67
2018-12-09T04:48:11.022Z,10.60
2018-12-09T04:50:38.872Z,14.20
2018-12-09T04:53:06.785Z,12.80
2018-12-09T04:55:34.622Z,14.93
2018-12-09T04:58:02.433Z,13.27
2018-12-09T05:00:35.820Z,12.33
2018-12-09T05:03:03.633Z,11.10
2018-12-09T05:05:31.660Z,11.83
2018-12-09T05:07:59.518Z,14.27
2018-12-09T05:10:27.344Z,9.30
2018-12-09T05:12:57.349Z,17.53
2018-12-09T05:15:25.608Z,11.23
2018-12-09T05:17:53.451Z,16.07
2018-12-09T05:20:21.292Z,15.33
2018-12-09T05:22:49.285Z,13.07
2018-12-09T05:25:17.353Z,14.90
2018-12-09T05:27:45.321Z,11.77
2018-12-09T05:30:13.275Z,11.77
2018-12-09T05:32:41.115Z,19.17
2018-12-09T05:35:08.990Z,13.03
2018-12-09T05:37:37.105Z,14.10
2018-12-09T05:40:04.960Z,15.17
2018-12-09T05:42:32.796Z,12.77
2018-12-09T05:45:00.654Z,17.53
2018-12-09T05:47:29.707Z,12.80
2018-12-09T05:49:57.636Z,15.50
2018-12-09T05:52:25.577Z,16.00
2018-12-09T05:54:53.410Z,12.33
2018-12-09T05:57:21.372Z,11.53
2018-12-09T05:59:49.222Z,12.80
2018-12-09T06:02:22.870Z,14.30
2018-12-09T06:04:50.717Z,16.27
2018-12-09T06:07:18.685Z,17.27
2018-12-09T06:09:46.542Z,17.87
2018-12-09T06:12:14.520Z,16.80
2018-12-09T06:14:42.415Z,14.53
2018-12-09T06:17:10.305Z,15.07
2018-12-09T06:19:38.148Z,26.17
2018-12-09T06:22:06.037Z,14.03
2018-12-09T06:24:33.935Z,12.13
2018-12-09T06:27:01.787Z,23.77
2018-12-09T06:29:29.656Z,17.77
2018-12-09T06:31:57.544Z,24.30
2018-12-09T06:34:26.414Z,19.07
2018-12-09T06:36:54.276Z,20.40
2018-12-09T06:39:22.144Z,21.73
2018-12-09T06:41:50.021Z,20.43
2018-12-09T06:44:17.877Z,20.33
2018-12-09T06:46:45.725Z,18.87
2018-12-09T06:49:13.572Z,21.37
2018-12-09T06:51:41.376Z,24.17
2018-12-09T06:54:09.245Z,21.37
2018-12-09T06:56:37.078Z,26.57
2018-12-09T06:59:05.919Z,11.40
2018-12-09T07:01:33.747Z,17.47
2018-12-09T07:04:01.622Z,28.27
2018-12-09T07:06:29.437Z,14.63
2018-12-09T07:08:58.274Z,21.27
2018-12-09T07:11:26.254Z,15.70
2018-12-09T07:13:54.227Z,23.17
2018-12-09T07:16:22.487Z,18.40
2018-12-09T07:18:50.310Z,13.53
2018-12-09T07:21:18.130Z,22.33
2018-12-09T07:23:46.015Z,21.57
2018-12-09T07:26:15.554Z,18.73
2018-12-09T07:28:43.795Z,22.67
2018-12-09T07:31:11.804Z,17.77
2018-12-09T07:33:39.624Z,22.83
2018-12-09T07:36:07.459Z,26.40
2018-12-09T07:38:35.322Z,23.83
2018-12-09T07:41:03.695Z,25.30
2018-12-09T07:43:31.582Z,30.13
2018-12-09T07:45:59.439Z,18.37
2018-12-09T07:48:27.396Z,28.00
2018-12-09T07:50:55.211Z,24.03
2018-12-09T07:53:24.699Z,23.60
2018-12-09T07:55:52.585Z,25.53
2018-12-09T07:58:20.636Z,27.90
2018-12-09T08:00:48.487Z,35.73
2018-12-09T08:03:16.307Z,27.20
2018-12-09T08:05:44.715Z,27.90
2018-12-09T08:08:12.536Z,32.90
2018-12-09T08:10:40.432Z,27.70
2018-12-09T08:13:08.362Z,22.23
2018-12-09T08:15:36.215Z,30.87
2018-12-09T08:18:04.054Z,38.27
2018-12-09T08:20:31.984Z,25.47
2018-12-09T08:22:59.860Z,29.03
2018-12-09T08:25:27.732Z,31.37
2018-12-09T08:27:55.552Z,29.20
2018-12-09T08:30:23.415Z,25.97
2018-12-09T08:32:51.413Z,26.93
2018-12-09T08:35:19.250Z,25.07
2018-12-09T08:37:47.106Z,24.70
2018-12-09T08:40:15.072Z,27.30
2018-12-09T08:42:42.935Z,21.47
2018-12-09T08:45:10.754Z,20.40
2018-12-09T08:47:38.732Z,21.30
2018-12-09T08:50:06.732Z,22.00
2018-12-09T08:52:34.602Z,17.77
2018-12-09T08:55:02.539Z,15.87
2018-12-09T08:57:30.405Z,14.53
2018-12-09T08:59:58.440Z,14.53
2018-12-09T09:02:26.496Z,10.77
2018-12-09T09:04:54.367Z,20.77
2018-12-09T09:07:22.217Z,17.10
2018-12-09T09:09:51.160Z,19.07
2018-12-09T09:12:19.066Z,18.80
2018-12-09T09:14:46.978Z,13.67
2018-12-09T09:17:14.801Z,12.33
2018-12-09T09:19:42.807Z,20.20
2018-12-09T09:22:10.744Z,15.40
2018-12-09T09:24:38.730Z,16.90
2018-12-09T09:27:07.699Z,11.17
2018-12-09T09:29:35.570Z,7.10
2018-12-09T09:32:03.689Z,9.13
2018-12-09T09:34:31.584Z,11.10
2018-12-09T09:36:59.506Z,13.70
2018-12-09T09:39:27.394Z,12.03
2018-12-09T09:41:55.305Z,13.27
2018-12-09T09:44:23.197Z,13.93
2018-12-09T09:46:51.151Z,10.17
2018-12-09T09:49:19.079Z,10.73
2018-12-09T09:51:47.037Z,11.37
2018-12-09T09:54:14.962Z,11.43
2018-12-09T09:56:42.906Z,9.50
2018-12-09T09:59:10.819Z,10.47
2018-12-09T10:01:38.759Z,13.17
2018-12-09T10:04:06.633Z,10.63
2018-12-09T10:06:34.638Z,14.53
2018-12-09T10:09:03.557Z,11.77
2018-12-09T10:11:31.489Z,10.70
2018-12-09T10:13:59.317Z,7.00
2018-12-09T10:16:27.310Z,15.07
2018-12-09T10:18:55.143Z,7.27
2018-12-09T10:21:25.175Z,8.90
2018-12-09T10:23:53.021Z,8.40
2018-12-09T10:26:20.902Z,9.30
2018-12-09T10:28:48.810Z,9.90
2018-12-09T10:31:16.697Z,6.60
2018-12-09T10:33:44.601Z,6.20
2018-12-09T10:36:12.479Z,16.10
2018-12-09T10:38:40.512Z,9.70
2018-12-09T10:41:08.414Z,11.20
2018-12-09T10:43:36.389Z,9.83
2018-12-09T10:46:04.438Z,9.90
2018-12-09T10:48:32.501Z,6.83
2018-12-09T10:51:00.404Z,4.87
2018-12-09T10:53:28.318Z,5.43
2018-12-09T10:55:56.220Z,5.57
2018-12-09T10:58:24.067Z,11.10
2018-12-09T11:00:56.465Z,6.83
2018-12-09T11:03:24.321Z,6.03
2018-12-09T11:05:52.254Z,8.53
2018-12-09T11:08:20.084Z,8.73
2018-12-09T11:10:48.062Z,7.27
2018-12-09T11:13:16.088Z,7.57
2018-12-09T11:15:43.992Z,7.80
2018-12-09T11:18:11.906Z,8.97
2018-12-09T11:20:39.832Z,15.60
2018-12-09T11:23:07.715Z,12.03
2018-12-09T11:25:35.680Z,8.77
2018-12-09T11:28:03.616Z,11.17
2018-12-09T11:30:31.541Z,10.17
2018-12-09T11:32:59.565Z,7.23
2018-12-09T11:35:27.502Z,4.37
2018-12-09T11:37:55.354Z,8.27
2018-12-09T11:40:23.235Z,7.37
2018-12-09T11:42:51.087Z,8.40
2018-12-09T11:45:18.965Z,10.50
2018-12-09T11:47:46.874Z,11.90
2018-12-09T11:50:14.850Z,7.33
2018-12-09T11:52:42.756Z,5.60
2018-12-09T11:55:10.619Z,4.63
2018-12-09T11:57:38.519Z,2.17
2018-12-09T12:00:09.194Z,3.37
2018-12-09T12:02:37.125Z,2.70
2018-12-09T12:05:05.558Z,5.30
2018-12-09T12:07:33.465Z,5.03
2018-12-09T12:10:01.330Z,5.40
2018-12-09T12:12:29.167Z,4.43
2018-12-09T12:14:56.985Z,11.77
2018-12-09T12:17:24.951Z,6.50
2018-12-09T12:19:52.828Z,7.93
2018-12-09T12:22:20.739Z,10.77
2018-12-09T12:24:48.599Z,12.20
2018-12-09T12:27:16.435Z,6.40
2018-12-09T12:29:44.319Z,5.00
2018-12-09T12:32:12.256Z,6.70
2018-12-09T12:34:40.280Z,3.67
2018-12-09T12:37:08.193Z,5.97
2018-12-09T12:39:36.081Z,7.37
2018-12-09T12:42:04.010Z,4.80
2018-12-09T12:44:32.123Z,10.03
2018-12-09T12:46:59.983Z,5.50
2018-12-09T12:49:27.905Z,8.90
2018-12-09T12:51:55.789Z,7.40
2018-12-09T12:54:23.679Z,6.30
2018-12-09T12:56:51.642Z,5.40
2018-12-09T12:59:19.852Z,5.83
2018-12-09T13:01:47.815Z,3.33
2018-12-09T13:04:15.695Z,4.40
2018-12-09T13:06:43.642Z,2.13
2018-12-09T13:09:11.558Z,2.17
2018-12-09T13:11:40.152Z,2.93
2018-12-09T13:14:09.143Z,7.33
2018-12-09T13:16:37.153Z,3.47
2018-12-09T13:19:05.127Z,5.77
2018-12-09T13:21:33.158Z,7.13
2018-12-09T13:24:01.756Z,3.87
2018-12-09T13:26:29.928Z,4.80
2018-12-09T13:28:57.797Z,4.83
2018-12-09T13:31:25.673Z,4.60
2018-12-09T13:33:53.653Z,1.77
2018-12-09T13:36:21.541Z,6.80
2018-12-09T13:38:49.345Z,5.53
2018-12-09T13:41:17.263Z,3.73
2018-12-09T13:43:45.121Z,6.53
2018-12-09T13:46:13.023Z,4.40
2018-12-09T13:48:41.041Z,2.67
2018-12-09T13:51:08.888Z,4.00
2018-12-09T13:53:36.794Z,2.23
2018-12-09T13:56:04.707Z,6.40
2018-12-09T13:58:32.712Z,3.67
2018-12-09T14:01:00.641Z,7.97
2018-12-09T14:03:29.649Z,1.77
2018-12-09T14:05:57.553Z,4.43
2018-12-09T14:08:25.430Z,4.03
2018-12-09T14:10:53.275Z,7.97
2018-12-09T14:13:21.136Z,3.13
2018-12-09T14:15:49.083Z,5.70
2018-12-09T14:18:17.076Z,2.70
2018-12-09T14:20:45.031Z,5.70
2018-12-09T14:23:12.928Z,6.43
2018-12-09T14:25:40.798Z,5.73
2018-12-09T14:28:08.727Z,6.10
2018-12-09T14:30:36.633Z,6.33
2018-12-09T14:33:04.681Z,7.67
2018-12-09T14:35:32.629Z,4.03
2018-12-09T14:38:00.567Z,6.87
2018-12-09T14:40:28.453Z,6.97
2018-12-09T14:42:56.411Z,5.87
2018-12-09T14:45:24.348Z,5.23
2018-12-09T14:47:52.421Z,2.40
2018-12-09T14:50:20.294Z,3.20
2018-12-09T14:52:48.206Z,3.40
2018-12-09T14:55:16.094Z,9.80
2018-12-09T14:57:44.087Z,5.50
2018-12-09T15:00:12.148Z,3.73
2018-12-09T15:02:40.116Z,3.97
2018-12-09T15:05:08.130Z,9.27
2018-12-09T15:07:36.015Z,2.97
2018-12-09T15:10:08.580Z,4.57
2018-12-09T15:12:34.442Z,8.87
2018-12-09T15:15:02.706Z,4.33
2018-12-09T15:17:32.079Z,5.80
2018-12-09T15:19:59.985Z,10.87
2018-12-09T15:22:28.106Z,12.53
2018-12-09T15:24:56.045Z,10.30
2018-12-09T15:27:24.155Z,10.63
2018-12-09T15:29:52.046Z,8.80
2018-12-09T15:32:20.408Z,7.97
2018-12-09T15:34:48.314Z,7.57
2018-12-09T15:37:16.322Z,5.40
2018-12-09T15:39:44.175Z,4.70
2018-12-09T15:42:12.119Z,6.97
2018-12-09T15:44:39.972Z,7.77
2018-12-09T15:47:07.956Z,2.77
2018-12-09T15:49:35.900Z,6.00
2018-12-09T15:52:03.903Z,6.77
2018-12-09T15:54:32.066Z,8.57
2018-12-09T15:57:00.039Z,10.47
2018-12-09T15:59:32.027Z,2.47
2018-12-09T16:01:57.802Z,4.93
2018-12-09T16:04:25.628Z,8.03
2018-12-09T16:06:53.673Z,6.47
2018-12-09T16:09:21.539Z,6.63
2018-12-09T16:11:49.498Z,6.30
2018-12-09T16:14:17.581Z,3.43
2018-12-09T16:16:45.486Z,9.67
2018-12-09T16:19:13.339Z,4.40
2018-12-09T16:21:41.346Z,5.93
2018-12-09T16:24:09.238Z,18.53
2018-12-09T16:26:37.349Z,6.63
2018-12-09T16:29:05.228Z,6.63
2018-12-09T16:31:33.116Z,7.20
2018-12-09T16:34:02.753Z,4.10
2018-12-09T16:36:30.622Z,1.47
2018-12-09T16:38:58.552Z,5.27
2018-12-09T16:41:26.401Z,9.50
2018-12-09T16:43:54.361Z,8.43
2018-12-09T16:46:22.359Z,3.83
2018-12-09T16:48:50.268Z,9.10
2018-12-09T16:51:18.255Z,5.77
2018-12-09T16:53:46.223Z,6.90
2018-12-09T16:56:14.127Z,3.20
2018-12-09T16:58:42.138Z,3.07
2018-12-09T17:01:10.010Z,7.13
2018-12-09T17:03:37.960Z,5.03
2018-12-09T17:06:05.838Z,5.63
2018-12-09T17:08:33.825Z,9.77
2018-12-09T17:11:01.734Z,2.53
2018-12-09T17:13:29.750Z,4.13
2018-12-09T17:15:57.612Z,7.93
2018-12-09T17:18:25.581Z,27.57
2018-12-09T17:20:53.469Z,2.37
2018-12-09T17:23:22.249Z,5.03
2018-12-09T17:25:50.158Z,3.57
2018-12-09T17:28:18.226Z,3.83
2018-12-09T17:30:46.098Z,5.33
2018-12-09T17:33:13.989Z,6.80
2018-12-09T17:35:43.035Z,4.43
2018-12-09T17:38:10.982Z,4.53
2018-12-09T17:40:38.844Z,9.33
2018-12-09T17:43:07.004Z,8.50
2018-12-09T17:45:34.899Z,7.93
2018-12-09T17:48:02.871Z,11.43
2018-12-09T17:50:30.754Z,6.77
2018-12-09T17:52:58.688Z,6.87
2018-12-09T17:55:26.806Z,3.60
2018-12-09T17:57:54.744Z,2.20
2018-12-09T18:00:22.655Z,7.83
2018-12-09T18:02:50.669Z,2.93
2018-12-09T18:05:18.522Z,5.97
2018-12-09T18:07:46.507Z,4.37
2018-12-09T18:10:14.399Z,7.60
2018-12-09T18:12:48.064Z,9.53
2018-12-09T18:15:15.470Z,3.23
2018-12-09T18:17:43.380Z,4.53
2018-12-09T18:20:11.298Z,6.23
2018-12-09T18:22:39.236Z,5.60
2018-12-09T18:25:07.238Z,5.80
2018-12-09T18:27:35.128Z,3.87
2018-12-09T18:30:03.255Z,8.03
2018-12-09T18:32:31.439Z,9.33
2018-12-09T18:34:59.357Z,5.10
2018-12-09T18:37:27.298Z,9.17
2018-12-09T18:39:55.352Z,9.73
2018-12-09T18:42:23.184Z,7.23
2018-12-09T18:44:51.156Z,9.73
2018-12-09T18:47:19.010Z,4.63
2018-12-09T18:49:48.134Z,4.93
2018-12-09T18:52:16.007Z,9.23
2018-12-09T18:54:44.023Z,4.37
2018-12-09T18:57:11.945Z,8.60
2018-12-09T18:59:39.936Z,5.07
2018-12-09T19:02:07.841Z,9.43
2018-12-09T19:04:35.963Z,3.73
2018-12-09T19:07:04.095Z,2.90
2018-12-09T19:09:33.392Z,3.93
2018-12-09T19:12:01.285Z,9.97
2018-12-09T19:14:29.220Z,7.90
2018-12-09T19:16:57.115Z,9.70
2018-12-09T19:19:25.073Z,4.40
2018-12-09T19:21:52.931Z,11.22
2018-12-09T19:24:20.888Z,10.93
2018-12-09T19:26:49.113Z,10.83
2018-12-09T19:29:17.293Z,14.47
2018-12-09T19:31:45.487Z,10.27
2018-12-09T19:34:15.275Z,10.07
2018-12-09T19:36:43.353Z,7.13
2018-12-09T19:39:11.374Z,9.33
2018-12-09T19:41:39.464Z,8.27
2018-12-09T19:44:07.337Z,7.67
2018-12-09T19:46:35.305Z,12.70
2018-12-09T19:49:03.294Z,4.77
2018-12-09T19:51:31.227Z,4.00
2018-12-09T19:53:59.102Z,7.97
2018-12-09T19:56:27.058Z,8.37
2018-12-09T19:58:54.998Z,7.40
2018-12-09T20:01:23.050Z,7.90
2018-12-09T20:03:51.126Z,8.43
2018-12-09T20:06:19.346Z,4.43
2018-12-09T20:08:47.247Z,10.80
2018-12-09T20:11:15.501Z,9.07
2018-12-09T20:13:43.467Z,5.40
2018-12-09T20:16:11.432Z,8.90
2018-12-09T20:18:39.293Z,5.87
2018-12-09T20:21:07.244Z,5.13
2018-12-09T20:23:35.177Z,3.37
2018-12-09T20:26:03.114Z,13.73
2018-12-09T20:28:30.974Z,9.70
2018-12-09T20:30:59.300Z,10.73
2018-12-09T20:33:27.203Z,11.27
2018-12-09T20:35:55.417Z,9.63
2018-12-09T20:38:23.491Z,9.97
2018-12-09T20:40:51.412Z,7.27
2018-12-09T20:43:19.860Z,4.93
2018-12-09T20:45:47.741Z,4.53
2018-12-09T20:48:16.006Z,6.87
2018-12-09T20:50:43.919Z,7.40
2018-12-09T20:53:15.200Z,14.13
2018-12-09T20:55:43.403Z,13.73
2018-12-09T20:58:13.797Z,6.47
2018-12-09T21:00:42.068Z,8.50
2018-12-09T21:03:10.117Z,5.53
2018-12-09T21:05:38.199Z,10.87
2018-12-09T21:08:10.070Z,11.20
2018-12-09T21:10:37.953Z,7.47
2018-12-09T21:13:05.881Z,10.23
2018-12-09T21:15:34.371Z,9.50
2018-12-09T21:18:06.295Z,11.33
2018-12-09T21:20:34.608Z,9.93
2018-12-09T21:23:02.570Z,4.33
2018-12-09T21:25:30.545Z,8.53
2018-12-09T21:27:58.843Z,8.37
2018-12-09T21:30:29.146Z,9.23
2018-12-09T21:32:57.160Z,2.57
2018-12-09T21:35:25.494Z,9.77
2018-12-09T21:37:53.667Z,13.00
2018-12-09T21:40:21.741Z,7.37
2018-12-09T21:42:49.715Z,7.10
2018-12-09T21:45:18.198Z,8.93
2018-12-09T21:47:46.055Z,8.60
2018-12-09T21:50:14.737Z,12.37
2018-12-09T21:52:42.594Z,11.73
2018-12-09T21:55:11.060Z,6.47
2018-12-09T21:57:39.148Z,11.40
2018-12-09T22:00:08.675Z,4.60
2018-12-09T22:02:37.873Z,9.83
2018-12-09T22:05:06.131Z,7.50
2018-12-09T22:07:34.085Z,8.87
2018-12-09T22:10:02.641Z,7.40
2018-12-09T22:12:32.493Z,2.83
2018-12-09T22:15:00.979Z,5.77
2018-12-09T22:17:29.428Z,4.63
2018-12-09T22:19:57.758Z,9.37
2018-12-09T22:22:26.103Z,8.70
2018-12-09T22:24:54.793Z,7.37
2018-12-09T22:27:23.266Z,6.57
2018-12-09T22:29:53.442Z,6.93
2018-12-09T22:32:22.358Z,6.57
2018-12-09T22:34:52.045Z,7.53
2018-12-09T22:37:21.189Z,4.07
2018-12-09T22:39:50.903Z,2.73
2018-12-09T22:42:21.218Z,7.23
2018-12-09T22:44:54.390Z,7.73
2018-12-09T22:47:23.144Z,5.77
2018-12-09T22:49:53.212Z,2.93
2018-12-09T22:52:22.203Z,4.37
2018-12-09T22:54:50.898Z,7.30
2018-12-09T22:57:19.371Z,3.17
2018-12-09T22:59:47.356Z,8.10
2018-12-09T23:02:27.511Z,7.43
2018-12-09T23:04:55.566Z,9.40
2018-12-09T23:07:29.245Z,3.90
2018-12-09T23:09:57.113Z,7.53
2018-12-09T23:12:25.301Z,3.27
2018-12-09T23:14:53.214Z,7.57
2018-12-09T23:17:21.120Z,5.97
2018-12-09T23:19:49.105Z,11.03
2018-12-09T23:22:17.054Z,5.00
2018-12-09T23:24:45.243Z,7.23
2018-12-09T23:27:13.111Z,7.70
2018-12-09T23:29:41.166Z,8.20
2018-12-09T23:32:09.456Z,5.50
2018-12-09T23:34:37.478Z,3.07
2018-12-09T23:37:05.345Z,3.90
2018-12-09T23:39:34.477Z,6.37
2018-12-09T23:42:02.522Z,17.70
2018-12-09T23:44:30.802Z,4.33
2018-12-09T23:46:58.866Z,12.53
2018-12-09T23:49:28.966Z,11.73
2018-12-09T23:51:56.860Z,11.73
2018-12-09T23:54:24.942Z,6.60
2018-12-09T23:56:55.040Z,5.70
2018-12-09T23:59:23.106Z,12.70
